sensor_id;sensor_type;location;lat;lon;timestamp;P1;durP1;ratioP1;P2;durP2;ratioP2
7821;SDS011;3956;50.558;9.678;2023-05-07T00:00:14;3.53;;;2.97;;
7821;SDS011;3956;50.558;9.678;2023-05-07T00:02:48;5.43;;;2.93;;
7821;SDS011;3956;50.558;9.678;2023-05-07T00:05:17;4.50;;;3.27;;
7821;SDS011;3956;50.558;9.678;2023-05-07T00:07:46;5.40;;;3.43;;
7821;SDS011;3956;50.558;9.678;2023-05-07T00:10:22;4.37;;;3.60;;
7821;SDS011;3956;50.558;9.678;2023-05-07T00:12:50;5.13;;;3.93;;
7821;SDS011;3956;50.558;9.678;2023-05-07T00:15:19;5.43;;;4.57;;
7821;SDS011;3956;50.558;9.678;2023-05-07T00:17:49;5.10;;;4.40;;
7821;SDS011;3956;50.558;9.678;2023-05-07T00:20:18;8.10;;;4.80;;
7821;SDS011;3956;50.558;9.678;2023-05-07T00:22:46;6.83;;;4.90;;
7821;SDS011;3956;50.558;9.678;2023-05-07T00:25:15;6.97;;;5.53;;
7821;SDS011;3956;50.558;9.678;2023-05-07T00:27:46;8.23;;;5.30;;
7821;SDS011;3956;50.558;9.678;2023-05-07T00:30:16;7.40;;;5.30;;
7821;SDS011;3956;50.558;9.678;2023-05-07T00:32:46;7.70;;;5.13;;
7821;SDS011;3956;50.558;9.678;2023-05-07T00:35:51;7.47;;;5.33;;
7821;SDS011;3956;50.558;9.678;2023-05-07T00:38:22;6.10;;;5.20;;
7821;SDS011;3956;50.558;9.678;2023-05-07T00:41:03;7.80;;;5.73;;
7821;SDS011;3956;50.558;9.678;2023-05-07T00:43:34;8.23;;;6.00;;
7821;SDS011;3956;50.558;9.678;2023-05-07T00:46:02;9.13;;;5.90;;
7821;SDS011;3956;50.558;9.678;2023-05-07T00:48:33;8.10;;;5.57;;
7821;SDS011;3956;50.558;9.678;2023-05-07T00:51:04;7.07;;;5.97;;
7821;SDS011;3956;50.558;9.678;2023-05-07T00:53:35;7.03;;;6.17;;
7821;SDS011;3956;50.558;9.678;2023-05-07T00:56:04;7.73;;;5.37;;
7821;SDS011;3956;50.558;9.678;2023-05-07T00:58:34;8.00;;;6.43;;
7821;SDS011;3956;50.558;9.678;2023-05-07T01:01:05;9.07;;;6.33;;
7821;SDS011;3956;50.558;9.678;2023-05-07T01:03:35;7.87;;;6.73;;
7821;SDS011;3956;50.558;9.678;2023-05-07T01:06:05;7.73;;;6.33;;
7821;SDS011;3956;50.558;9.678;2023-05-07T01:08:39;7.33;;;6.30;;
7821;SDS011;3956;50.558;9.678;2023-05-07T01:11:08;10.20;;;6.23;;
7821;SDS011;3956;50.558;9.678;2023-05-07T01:13:39;9.87;;;6.93;;
7821;SDS011;3956;50.558;9.678;2023-05-07T01:16:10;7.63;;;6.60;;
7821;SDS011;3956;50.558;9.678;2023-05-07T01:18:42;10.00;;;7.60;;
7821;SDS011;3956;50.558;9.678;2023-05-07T01:21:12;11.80;;;7.80;;
7821;SDS011;3956;50.558;9.678;2023-05-07T01:23:46;10.67;;;7.93;;
7821;SDS011;3956;50.558;9.678;2023-05-07T01:26:16;10.27;;;8.17;;
7821;SDS011;3956;50.558;9.678;2023-05-07T01:28:46;9.30;;;7.80;;
7821;SDS011;3956;50.558;9.678;2023-05-07T01:31:20;9.20;;;8.00;;
7821;SDS011;3956;50.558;9.678;2023-05-07T01:34:30;10.07;;;9.07;;
7821;SDS011;3956;50.558;9.678;2023-05-07T01:37:01;10.93;;;8.63;;
7821;SDS011;3956;50.558;9.678;2023-05-07T01:39:33;11.47;;;9.10;;
7821;SDS011;3956;50.558;9.678;2023-05-07T01:42:04;11.50;;;8.43;;
7821;SDS011;3956;50.558;9.678;2023-05-07T01:44:35;9.63;;;8.63;;
7821;SDS011;3956;50.558;9.678;2023-05-07T01:47:07;10.40;;;9.30;;
7821;SDS011;3956;50.558;9.678;2023-05-07T01:49:37;11.97;;;9.10;;
7821;SDS011;3956;50.558;9.678;2023-05-07T01:52:07;10.17;;;9.03;;
7821;SDS011;3956;50.558;9.678;2023-05-07T01:54:38;10.93;;;9.63;;
7821;SDS011;3956;50.558;9.678;2023-05-07T01:57:07;11.13;;;9.10;;
7821;SDS011;3956;50.558;9.678;2023-05-07T01:59:35;11.27;;;10.00;;
7821;SDS011;3956;50.558;9.678;2023-05-07T02:02:04;11.17;;;9.40;;
7821;SDS011;3956;50.558;9.678;2023-05-07T02:04:34;10.27;;;9.17;;
7821;SDS011;3956;50.558;9.678;2023-05-07T02:07:02;10.53;;;9.33;;
7821;SDS011;3956;50.558;9.678;2023-05-07T02:09:31;13.17;;;9.50;;
7821;SDS011;3956;50.558;9.678;2023-05-07T02:12:01;12.10;;;9.33;;
7821;SDS011;3956;50.558;9.678;2023-05-07T02:14:29;11.40;;;8.93;;
7821;SDS011;3956;50.558;9.678;2023-05-07T02:16:59;10.83;;;9.30;;
7821;SDS011;3956;50.558;9.678;2023-05-07T02:19:27;10.93;;;9.40;;
7821;SDS011;3956;50.558;9.678;2023-05-07T02:21:55;10.00;;;8.33;;
7821;SDS011;3956;50.558;9.678;2023-05-07T02:24:25;10.20;;;8.90;;
7821;SDS011;3956;50.558;9.678;2023-05-07T02:26:53;14.40;;;9.80;;
7821;SDS011;3956;50.558;9.678;2023-05-07T02:29:23;12.80;;;10.27;;
7821;SDS011;3956;50.558;9.678;2023-05-07T02:31:51;11.13;;;9.07;;
7821;SDS011;3956;50.558;9.678;2023-05-07T02:34:23;13.00;;;10.43;;
7821;SDS011;3956;50.558;9.678;2023-05-07T02:36:53;13.87;;;10.30;;
7821;SDS011;3956;50.558;9.678;2023-05-07T02:39:22;12.27;;;10.30;;
7821;SDS011;3956;50.558;9.678;2023-05-07T02:41:50;12.50;;;10.50;;
7821;SDS011;3956;50.558;9.678;2023-05-07T02:44:18;13.80;;;11.20;;
7821;SDS011;3956;50.558;9.678;2023-05-07T02:46:48;13.30;;;11.10;;
7821;SDS011;3956;50.558;9.678;2023-05-07T02:49:17;12.03;;;10.83;;
7821;SDS011;3956;50.558;9.678;2023-05-07T02:51:52;14.10;;;11.87;;
7821;SDS011;3956;50.558;9.678;2023-05-07T02:54:23;14.30;;;11.83;;
7821;SDS011;3956;50.558;9.678;2023-05-07T02:56:53;15.57;;;11.73;;
7821;SDS011;3956;50.558;9.678;2023-05-07T02:59:21;14.03;;;11.63;;
7821;SDS011;3956;50.558;9.678;2023-05-07T03:01:50;13.47;;;12.10;;
7821;SDS011;3956;50.558;9.678;2023-05-07T03:04:18;15.50;;;11.97;;
7821;SDS011;3956;50.558;9.678;2023-05-07T03:06:51;14.20;;;12.43;;
7821;SDS011;3956;50.558;9.678;2023-05-07T03:09:25;15.90;;;11.70;;
7821;SDS011;3956;50.558;9.678;2023-05-07T03:11:56;14.57;;;12.00;;
7821;SDS011;3956;50.558;9.678;2023-05-07T03:14:25;16.83;;;12.20;;
7821;SDS011;3956;50.558;9.678;2023-05-07T03:16:57;14.60;;;12.70;;
7821;SDS011;3956;50.558;9.678;2023-05-07T03:19:27;12.77;;;11.47;;
7821;SDS011;3956;50.558;9.678;2023-05-07T03:21:56;15.17;;;11.93;;
7821;SDS011;3956;50.558;9.678;2023-05-07T03:24:27;13.87;;;11.27;;
7821;SDS011;3956;50.558;9.678;2023-05-07T03:26:56;12.93;;;11.53;;
7821;SDS011;3956;50.558;9.678;2023-05-07T03:29:25;13.10;;;11.23;;
7821;SDS011;3956;50.558;9.678;2023-05-07T03:35:11;14.67;;;12.20;;
7821;SDS011;3956;50.558;9.678;2023-05-07T03:37:39;14.57;;;11.67;;
7821;SDS011;3956;50.558;9.678;2023-05-07T03:40:08;14.20;;;11.93;;
7821;SDS011;3956;50.558;9.678;2023-05-07T03:42:39;14.30;;;11.90;;
7821;SDS011;3956;50.558;9.678;2023-05-07T03:45:07;14.43;;;12.63;;
7821;SDS011;3956;50.558;9.678;2023-05-07T03:47:36;14.43;;;12.53;;
7821;SDS011;3956;50.558;9.678;2023-05-07T03:50:05;16.33;;;13.30;;
7821;SDS011;3956;50.558;9.678;2023-05-07T03:52:36;15.00;;;13.40;;
7821;SDS011;3956;50.558;9.678;2023-05-07T03:55:06;17.70;;;13.10;;
7821;SDS011;3956;50.558;9.678;2023-05-07T03:57:37;15.30;;;13.70;;
7821;SDS011;3956;50.558;9.678;2023-05-07T04:00:05;16.63;;;13.83;;
7821;SDS011;3956;50.558;9.678;2023-05-07T04:02:35;18.13;;;13.07;;
7821;SDS011;3956;50.558;9.678;2023-05-07T04:05:03;16.40;;;13.37;;
7821;SDS011;3956;50.558;9.678;2023-05-07T04:07:33;14.80;;;13.17;;
7821;SDS011;3956;50.558;9.678;2023-05-07T04:10:03;19.13;;;13.60;;
7821;SDS011;3956;50.558;9.678;2023-05-07T04:12:32;19.40;;;14.63;;
7821;SDS011;3956;50.558;9.678;2023-05-07T04:15:03;16.70;;;13.27;;
7821;SDS011;3956;50.558;9.678;2023-05-07T04:17:32;16.03;;;14.10;;
7821;SDS011;3956;50.558;9.678;2023-05-07T04:20:02;19.20;;;14.90;;
7821;SDS011;3956;50.558;9.678;2023-05-07T04:22:38;17.37;;;13.73;;
7821;SDS011;3956;50.558;9.678;2023-05-07T04:25:15;17.83;;;14.33;;
7821;SDS011;3956;50.558;9.678;2023-05-07T04:27:43;19.10;;;14.63;;
7821;SDS011;3956;50.558;9.678;2023-05-07T04:30:13;18.17;;;15.13;;
7821;SDS011;3956;50.558;9.678;2023-05-07T04:32:43;18.83;;;14.43;;
7821;SDS011;3956;50.558;9.678;2023-05-07T04:35:11;20.30;;;15.20;;
7821;SDS011;3956;50.558;9.678;2023-05-07T04:37:42;21.07;;;16.20;;
7821;SDS011;3956;50.558;9.678;2023-05-07T04:40:13;20.50;;;15.50;;
7821;SDS011;3956;50.558;9.678;2023-05-07T04:42:42;20.70;;;16.20;;
7821;SDS011;3956;50.558;9.678;2023-05-07T04:45:12;20.17;;;15.17;;
7821;SDS011;3956;50.558;9.678;2023-05-07T04:47:44;18.97;;;15.27;;
7821;SDS011;3956;50.558;9.678;2023-05-07T04:50:13;19.57;;;14.83;;
7821;SDS011;3956;50.558;9.678;2023-05-07T04:52:42;18.57;;;14.83;;
7821;SDS011;3956;50.558;9.678;2023-05-07T04:55:10;20.93;;;15.40;;
7821;SDS011;3956;50.558;9.678;2023-05-07T04:57:42;16.87;;;14.53;;
7821;SDS011;3956;50.558;9.678;2023-05-07T05:00:13;18.70;;;14.67;;
7821;SDS011;3956;50.558;9.678;2023-05-07T05:02:56;17.90;;;14.60;;
7821;SDS011;3956;50.558;9.678;2023-05-07T05:05:25;16.77;;;13.83;;
7821;SDS011;3956;50.558;9.678;2023-05-07T05:07:57;18.03;;;14.77;;
7821;SDS011;3956;50.558;9.678;2023-05-07T05:10:27;18.57;;;14.73;;
7821;SDS011;3956;50.558;9.678;2023-05-07T05:12:59;17.73;;;13.77;;
7821;SDS011;3956;50.558;9.678;2023-05-07T05:15:27;17.53;;;14.47;;
7821;SDS011;3956;50.558;9.678;2023-05-07T05:18:00;17.50;;;14.53;;
7821;SDS011;3956;50.558;9.678;2023-05-07T05:20:28;19.33;;;14.73;;
7821;SDS011;3956;50.558;9.678;2023-05-07T05:22:59;18.07;;;15.23;;
7821;SDS011;3956;50.558;9.678;2023-05-07T05:25:29;21.77;;;16.63;;
7821;SDS011;3956;50.558;9.678;2023-05-07T05:28:31;21.17;;;15.43;;
7821;SDS011;3956;50.558;9.678;2023-05-07T05:31:06;19.60;;;15.77;;
7821;SDS011;3956;50.558;9.678;2023-05-07T05:33:35;19.80;;;15.10;;
7821;SDS011;3956;50.558;9.678;2023-05-07T05:36:05;22.70;;;16.67;;
7821;SDS011;3956;50.558;9.678;2023-05-07T05:38:35;20.50;;;15.33;;
7821;SDS011;3956;50.558;9.678;2023-05-07T05:41:04;20.33;;;16.03;;
7821;SDS011;3956;50.558;9.678;2023-05-07T05:43:34;21.07;;;15.73;;
7821;SDS011;3956;50.558;9.678;2023-05-07T05:46:05;20.00;;;16.00;;
7821;SDS011;3956;50.558;9.678;2023-05-07T05:48:38;19.03;;;15.73;;
7821;SDS011;3956;50.558;9.678;2023-05-07T05:51:10;20.33;;;15.13;;
7821;SDS011;3956;50.558;9.678;2023-05-07T05:53:38;21.90;;;16.13;;
7821;SDS011;3956;50.558;9.678;2023-05-07T05:56:06;20.40;;;15.30;;
7821;SDS011;3956;50.558;9.678;2023-05-07T05:58:36;19.53;;;15.83;;
7821;SDS011;3956;50.558;9.678;2023-05-07T06:01:04;20.37;;;15.30;;
7821;SDS011;3956;50.558;9.678;2023-05-07T06:03:37;19.93;;;15.20;;
7821;SDS011;3956;50.558;9.678;2023-05-07T06:06:06;22.50;;;15.73;;
7821;SDS011;3956;50.558;9.678;2023-05-07T06:08:34;19.87;;;15.50;;
7821;SDS011;3956;50.558;9.678;2023-05-07T06:11:03;21.23;;;15.87;;
7821;SDS011;3956;50.558;9.678;2023-05-07T06:13:32;21.30;;;16.50;;
7821;SDS011;3956;50.558;9.678;2023-05-07T06:16:03;18.67;;;14.67;;
7821;SDS011;3956;50.558;9.678;2023-05-07T06:18:33;20.37;;;16.13;;
7821;SDS011;3956;50.558;9.678;2023-05-07T06:21:03;19.07;;;15.43;;
7821;SDS011;3956;50.558;9.678;2023-05-07T06:23:32;19.93;;;14.93;;
7821;SDS011;3956;50.558;9.678;2023-05-07T06:26:04;19.67;;;15.43;;
7821;SDS011;3956;50.558;9.678;2023-05-07T06:28:37;18.93;;;14.20;;
7821;SDS011;3956;50.558;9.678;2023-05-07T06:31:46;20.13;;;14.77;;
7821;SDS011;3956;50.558;9.678;2023-05-07T06:34:16;18.73;;;14.60;;
7821;SDS011;3956;50.558;9.678;2023-05-07T06:36:44;20.87;;;14.37;;
7821;SDS011;3956;50.558;9.678;2023-05-07T06:39:14;18.57;;;13.97;;
7821;SDS011;3956;50.558;9.678;2023-05-07T06:41:42;18.47;;;14.40;;
7821;SDS011;3956;50.558;9.678;2023-05-07T06:44:12;20.90;;;14.50;;
7821;SDS011;3956;50.558;9.678;2023-05-07T06:46:43;19.83;;;14.73;;
7821;SDS011;3956;50.558;9.678;2023-05-07T06:49:15;19.77;;;14.80;;
7821;SDS011;3956;50.558;9.678;2023-05-07T06:51:43;17.10;;;14.10;;
7821;SDS011;3956;50.558;9.678;2023-05-07T06:54:16;18.43;;;14.10;;
7821;SDS011;3956;50.558;9.678;2023-05-07T06:56:48;19.90;;;15.13;;
7821;SDS011;3956;50.558;9.678;2023-05-07T06:59:19;19.53;;;15.00;;
7821;SDS011;3956;50.558;9.678;2023-05-07T07:02:02;18.50;;;15.17;;
7821;SDS011;3956;50.558;9.678;2023-05-07T07:04:45;19.57;;;14.80;;
7821;SDS011;3956;50.558;9.678;2023-05-07T07:07:14;17.17;;;14.20;;
7821;SDS011;3956;50.558;9.678;2023-05-07T07:09:42;19.17;;;14.13;;
7821;SDS011;3956;50.558;9.678;2023-05-07T07:12:12;17.83;;;13.57;;
7821;SDS011;3956;50.558;9.678;2023-05-07T07:14:41;18.73;;;14.70;;
7821;SDS011;3956;50.558;9.678;2023-05-07T07:17:10;19.63;;;13.63;;
7821;SDS011;3956;50.558;9.678;2023-05-07T07:19:42;18.57;;;14.00;;
7821;SDS011;3956;50.558;9.678;2023-05-07T07:22:20;18.07;;;13.40;;
7821;SDS011;3956;50.558;9.678;2023-05-07T07:24:48;18.87;;;13.13;;
7821;SDS011;3956;50.558;9.678;2023-05-07T07:27:22;16.23;;;12.90;;
7821;SDS011;3956;50.558;9.678;2023-05-07T07:30:21;18.53;;;12.73;;
7821;SDS011;3956;50.558;9.678;2023-05-07T07:32:50;17.37;;;13.20;;
7821;SDS011;3956;50.558;9.678;2023-05-07T07:35:25;16.07;;;12.20;;
7821;SDS011;3956;50.558;9.678;2023-05-07T07:38:00;16.27;;;12.33;;
7821;SDS011;3956;50.558;9.678;2023-05-07T07:40:34;16.07;;;12.73;;
7821;SDS011;3956;50.558;9.678;2023-05-07T07:43:10;17.80;;;13.50;;
7821;SDS011;3956;50.558;9.678;2023-05-07T07:45:45;21.80;;;13.67;;
7821;SDS011;3956;50.558;9.678;2023-05-07T07:48:24;17.13;;;12.17;;
7821;SDS011;3956;50.558;9.678;2023-05-07T07:51:04;16.73;;;11.93;;
7821;SDS011;3956;50.558;9.678;2023-05-07T07:53:34;16.13;;;12.67;;
7821;SDS011;3956;50.558;9.678;2023-05-07T07:56:03;15.43;;;11.30;;
7821;SDS011;3956;50.558;9.678;2023-05-07T07:58:32;14.40;;;11.27;;
7821;SDS011;3956;50.558;9.678;2023-05-07T08:01:03;16.13;;;12.30;;
7821;SDS011;3956;50.558;9.678;2023-05-07T08:03:31;15.47;;;11.90;;
7821;SDS011;3956;50.558;9.678;2023-05-07T08:06:01;13.33;;;11.10;;
7821;SDS011;3956;50.558;9.678;2023-05-07T08:08:32;14.73;;;11.20;;
7821;SDS011;3956;50.558;9.678;2023-05-07T08:11:04;13.40;;;9.93;;
7821;SDS011;3956;50.558;9.678;2023-05-07T08:13:32;16.97;;;11.33;;
7821;SDS011;3956;50.558;9.678;2023-05-07T08:16:05;14.13;;;10.47;;
7821;SDS011;3956;50.558;9.678;2023-05-07T08:18:33;14.47;;;10.37;;
7821;SDS011;3956;50.558;9.678;2023-05-07T08:21:04;16.17;;;11.07;;
7821;SDS011;3956;50.558;9.678;2023-05-07T08:23:34;13.23;;;10.20;;
7821;SDS011;3956;50.558;9.678;2023-05-07T08:26:08;13.70;;;10.00;;
7821;SDS011;3956;50.558;9.678;2023-05-07T08:28:41;14.03;;;10.07;;
7821;SDS011;3956;50.558;9.678;2023-05-07T08:31:20;14.30;;;10.43;;
7821;SDS011;3956;50.558;9.678;2023-05-07T08:33:50;13.13;;;10.73;;
7821;SDS011;3956;50.558;9.678;2023-05-07T08:36:34;14.30;;;10.73;;
7821;SDS011;3956;50.558;9.678;2023-05-07T08:39:12;14.77;;;10.00;;
7821;SDS011;3956;50.558;9.678;2023-05-07T08:41:49;13.20;;;10.00;;
7821;SDS011;3956;50.558;9.678;2023-05-07T08:44:47;14.50;;;9.50;;
7821;SDS011;3956;50.558;9.678;2023-05-07T08:47:20;11.20;;;8.97;;
7821;SDS011;3956;50.558;9.678;2023-05-07T08:49:53;12.13;;;9.47;;
7821;SDS011;3956;50.558;9.678;2023-05-07T08:52:29;11.23;;;8.87;;
7821;SDS011;3956;50.558;9.678;2023-05-07T08:55:03;11.27;;;8.97;;
7821;SDS011;3956;50.558;9.678;2023-05-07T08:57:36;10.03;;;8.17;;
7821;SDS011;3956;50.558;9.678;2023-05-07T09:00:06;11.10;;;8.30;;
7821;SDS011;3956;50.558;9.678;2023-05-07T09:05:14;11.23;;;8.33;;
7821;SDS011;3956;50.558;9.678;2023-05-07T09:08:32;8.67;;;7.43;;
7821;SDS011;3956;50.558;9.678;2023-05-07T09:11:22;9.30;;;7.13;;
7821;SDS011;3956;50.558;9.678;2023-05-07T09:13:53;9.27;;;7.13;;
7821;SDS011;3956;50.558;9.678;2023-05-07T09:16:24;7.17;;;6.43;;
7821;SDS011;3956;50.558;9.678;2023-05-07T09:18:59;9.50;;;6.20;;
7821;SDS011;3956;50.558;9.678;2023-05-07T09:21:34;8.93;;;7.33;;
7821;SDS011;3956;50.558;9.678;2023-05-07T09:24:05;9.50;;;7.20;;
7821;SDS011;3956;50.558;9.678;2023-05-07T09:26:33;9.53;;;7.70;;
7821;SDS011;3956;50.558;9.678;2023-05-07T09:29:03;9.53;;;7.63;;
7821;SDS011;3956;50.558;9.678;2023-05-07T09:31:36;10.03;;;7.97;;
7821;SDS011;3956;50.558;9.678;2023-05-07T09:34:05;9.63;;;7.40;;
7821;SDS011;3956;50.558;9.678;2023-05-07T09:36:34;8.43;;;6.90;;
7821;SDS011;3956;50.558;9.678;2023-05-07T09:39:03;7.43;;;6.63;;
7821;SDS011;3956;50.558;9.678;2023-05-07T09:41:32;8.63;;;6.57;;
7821;SDS011;3956;50.558;9.678;2023-05-07T09:44:10;9.67;;;7.03;;
7821;SDS011;3956;50.558;9.678;2023-05-07T09:46:41;8.37;;;6.50;;
7821;SDS011;3956;50.558;9.678;2023-05-07T09:49:13;10.03;;;7.33;;
7821;SDS011;3956;50.558;9.678;2023-05-07T09:51:53;10.27;;;7.57;;
7821;SDS011;3956;50.558;9.678;2023-05-07T09:54:24;9.13;;;6.70;;
7821;SDS011;3956;50.558;9.678;2023-05-07T09:56:59;8.07;;;6.80;;
7821;SDS011;3956;50.558;9.678;2023-05-07T09:59:31;8.43;;;6.77;;
7821;SDS011;3956;50.558;9.678;2023-05-07T10:02:05;9.27;;;6.83;;
7821;SDS011;3956;50.558;9.678;2023-05-07T10:04:33;9.40;;;7.47;;
7821;SDS011;3956;50.558;9.678;2023-05-07T10:07:05;7.83;;;7.03;;
7821;SDS011;3956;50.558;9.678;2023-05-07T10:12:14;10.97;;;7.47;;
7821;SDS011;3956;50.558;9.678;2023-05-07T10:15:01;11.50;;;8.03;;
7821;SDS011;3956;50.558;9.678;2023-05-07T10:17:33;10.57;;;7.43;;
7821;SDS011;3956;50.558;9.678;2023-05-07T10:20:05;8.00;;;6.07;;
7821;SDS011;3956;50.558;9.678;2023-05-07T10:22:43;8.40;;;6.17;;
7821;SDS011;3956;50.558;9.678;2023-05-07T10:25:22;8.33;;;6.40;;
7821;SDS011;3956;50.558;9.678;2023-05-07T10:27:58;10.07;;;7.20;;
7821;SDS011;3956;50.558;9.678;2023-05-07T10:30:38;8.33;;;6.30;;
7821;SDS011;3956;50.558;9.678;2023-05-07T10:33:32;7.43;;;6.47;;
7821;SDS011;3956;50.558;9.678;2023-05-07T10:36:04;7.67;;;6.20;;
7821;SDS011;3956;50.558;9.678;2023-05-07T10:38:40;8.07;;;5.63;;
7821;SDS011;3956;50.558;9.678;2023-05-07T10:41:16;8.10;;;6.23;;
7821;SDS011;3956;50.558;9.678;2023-05-07T10:43:49;12.73;;;8.13;;
7821;SDS011;3956;50.558;9.678;2023-05-07T10:46:20;7.43;;;6.00;;
7821;SDS011;3956;50.558;9.678;2023-05-07T10:49:06;7.77;;;5.70;;
7821;SDS011;3956;50.558;9.678;2023-05-07T10:52:16;8.17;;;6.57;;
7821;SDS011;3956;50.558;9.678;2023-05-07T10:55:18;6.30;;;5.60;;
7821;SDS011;3956;50.558;9.678;2023-05-07T10:57:55;7.23;;;5.23;;
7821;SDS011;3956;50.558;9.678;2023-05-07T11:01:15;6.77;;;5.40;;
7821;SDS011;3956;50.558;9.678;2023-05-07T11:04:47;7.00;;;5.60;;
7821;SDS011;3956;50.558;9.678;2023-05-07T11:08:14;7.10;;;5.77;;
7821;SDS011;3956;50.558;9.678;2023-05-07T11:10:53;7.87;;;6.13;;
7821;SDS011;3956;50.558;9.678;2023-05-07T11:13:47;8.10;;;6.10;;
7821;SDS011;3956;50.558;9.678;2023-05-07T11:16:18;12.30;;;6.33;;
7821;SDS011;3956;50.558;9.678;2023-05-07T11:18:55;6.03;;;5.23;;
7821;SDS011;3956;50.558;9.678;2023-05-07T11:21:32;6.70;;;5.53;;
7821;SDS011;3956;50.558;9.678;2023-05-07T11:24:05;5.73;;;5.13;;
7821;SDS011;3956;50.558;9.678;2023-05-07T11:26:46;10.20;;;5.60;;
7821;SDS011;3956;50.558;9.678;2023-05-07T11:29:18;6.07;;;5.33;;
7821;SDS011;3956;50.558;9.678;2023-05-07T11:31:50;7.20;;;5.27;;
7821;SDS011;3956;50.558;9.678;2023-05-07T11:34:21;6.20;;;5.00;;
7821;SDS011;3956;50.558;9.678;2023-05-07T11:36:52;6.43;;;5.40;;
7821;SDS011;3956;50.558;9.678;2023-05-07T11:46:51;5.53;;;4.47;;
7821;SDS011;3956;50.558;9.678;2023-05-07T11:49:50;6.33;;;5.07;;
7821;SDS011;3956;50.558;9.678;2023-05-07T11:53:26;4.97;;;4.47;;
7821;SDS011;3956;50.558;9.678;2023-05-07T11:56:56;8.07;;;5.47;;
7821;SDS011;3956;50.558;9.678;2023-05-07T11:59:27;5.83;;;5.27;;
7821;SDS011;3956;50.558;9.678;2023-05-07T12:02:01;6.50;;;4.70;;
7821;SDS011;3956;50.558;9.678;2023-05-07T12:04:34;7.43;;;5.20;;
7821;SDS011;3956;50.558;9.678;2023-05-07T12:07:03;8.37;;;4.93;;
7821;SDS011;3956;50.558;9.678;2023-05-07T12:09:32;7.13;;;4.63;;
7821;SDS011;3956;50.558;9.678;2023-05-07T12:12:10;7.17;;;5.30;;
7821;SDS011;3956;50.558;9.678;2023-05-07T12:14:42;6.20;;;4.57;;
7821;SDS011;3956;50.558;9.678;2023-05-07T12:17:37;7.03;;;4.83;;
7821;SDS011;3956;50.558;9.678;2023-05-07T12:20:25;5.30;;;4.70;;
7821;SDS011;3956;50.558;9.678;2023-05-07T12:22:59;5.70;;;4.70;;
7821;SDS011;3956;50.558;9.678;2023-05-07T12:25:33;5.23;;;4.60;;
7821;SDS011;3956;50.558;9.678;2023-05-07T12:28:04;5.37;;;4.63;;
7821;SDS011;3956;50.558;9.678;2023-05-07T12:30:54;5.47;;;4.40;;
7821;SDS011;3956;50.558;9.678;2023-05-07T12:33:26;5.77;;;4.30;;
7821;SDS011;3956;50.558;9.678;2023-05-07T12:36:02;6.00;;;5.00;;
7821;SDS011;3956;50.558;9.678;2023-05-07T12:38:34;5.67;;;4.80;;
7821;SDS011;3956;50.558;9.678;2023-05-07T12:41:19;6.07;;;4.60;;
7821;SDS011;3956;50.558;9.678;2023-05-07T12:44:09;6.93;;;4.93;;
7821;SDS011;3956;50.558;9.678;2023-05-07T12:46:38;6.67;;;4.90;;
7821;SDS011;3956;50.558;9.678;2023-05-07T12:49:13;5.67;;;4.70;;
7821;SDS011;3956;50.558;9.678;2023-05-07T12:51:43;6.87;;;5.00;;
7821;SDS011;3956;50.558;9.678;2023-05-07T12:57:12;6.97;;;5.37;;
7821;SDS011;3956;50.558;9.678;2023-05-07T12:59:42;8.87;;;5.70;;
7821;SDS011;3956;50.558;9.678;2023-05-07T13:02:12;9.03;;;4.87;;
7821;SDS011;3956;50.558;9.678;2023-05-07T13:04:41;5.50;;;5.00;;
7821;SDS011;3956;50.558;9.678;2023-05-07T13:07:09;7.03;;;5.40;;
7821;SDS011;3956;50.558;9.678;2023-05-07T13:09:42;6.00;;;5.20;;
7821;SDS011;3956;50.558;9.678;2023-05-07T13:12:10;7.93;;;4.87;;
7821;SDS011;3956;50.558;9.678;2023-05-07T13:14:43;6.37;;;5.07;;
7821;SDS011;3956;50.558;9.678;2023-05-07T13:17:27;5.40;;;4.43;;
7821;SDS011;3956;50.558;9.678;2023-05-07T13:20:16;6.70;;;4.97;;
7821;SDS011;3956;50.558;9.678;2023-05-07T13:22:46;6.63;;;4.87;;
7821;SDS011;3956;50.558;9.678;2023-05-07T13:25:18;7.87;;;5.70;;
7821;SDS011;3956;50.558;9.678;2023-05-07T13:27:48;7.47;;;5.30;;
7821;SDS011;3956;50.558;9.678;2023-05-07T13:31:02;6.17;;;5.23;;
7821;SDS011;3956;50.558;9.678;2023-05-07T13:33:31;6.97;;;5.00;;
7821;SDS011;3956;50.558;9.678;2023-05-07T13:36:05;5.03;;;4.30;;
7821;SDS011;3956;50.558;9.678;2023-05-07T13:38:34;7.73;;;5.87;;
7821;SDS011;3956;50.558;9.678;2023-05-07T13:41:07;7.30;;;5.93;;
7821;SDS011;3956;50.558;9.678;2023-05-07T13:44:14;9.47;;;7.10;;
7821;SDS011;3956;50.558;9.678;2023-05-07T13:46:44;6.57;;;5.20;;
7821;SDS011;3956;50.558;9.678;2023-05-07T13:49:50;5.97;;;4.90;;
7821;SDS011;3956;50.558;9.678;2023-05-07T13:53:06;6.03;;;4.77;;
7821;SDS011;3956;50.558;9.678;2023-05-07T13:56:05;8.87;;;6.03;;
7821;SDS011;3956;50.558;9.678;2023-05-07T13:58:41;9.23;;;6.50;;
7821;SDS011;3956;50.558;9.678;2023-05-07T14:01:26;8.20;;;5.37;;
7821;SDS011;3956;50.558;9.678;2023-05-07T14:03:55;5.80;;;4.80;;
7821;SDS011;3956;50.558;9.678;2023-05-07T14:06:28;5.32;;;4.72;;
7821;SDS011;3956;50.558;9.678;2023-05-07T14:09:18;7.37;;;5.37;;
7821;SDS011;3956;50.558;9.678;2023-05-07T14:11:56;6.13;;;5.10;;
7821;SDS011;3956;50.558;9.678;2023-05-07T14:14:38;6.23;;;5.00;;
7821;SDS011;3956;50.558;9.678;2023-05-07T14:17:15;6.83;;;4.83;;
7821;SDS011;3956;50.558;9.678;2023-05-07T14:19:47;5.73;;;4.73;;
7821;SDS011;3956;50.558;9.678;2023-05-07T14:22:21;6.23;;;4.73;;
7821;SDS011;3956;50.558;9.678;2023-05-07T14:24:56;4.33;;;3.93;;
7821;SDS011;3956;50.558;9.678;2023-05-07T14:27:32;5.67;;;4.50;;
7821;SDS011;3956;50.558;9.678;2023-05-07T14:30:02;6.63;;;4.77;;
7821;SDS011;3956;50.558;9.678;2023-05-07T14:32:45;5.90;;;4.90;;
7821;SDS011;3956;50.558;9.678;2023-05-07T14:35:15;8.97;;;5.93;;
7821;SDS011;3956;50.558;9.678;2023-05-07T14:37:47;6.33;;;5.67;;
7821;SDS011;3956;50.558;9.678;2023-05-07T14:40:18;9.20;;;5.07;;
7821;SDS011;3956;50.558;9.678;2023-05-07T14:42:51;5.20;;;4.60;;
7821;SDS011;3956;50.558;9.678;2023-05-07T14:45:20;5.47;;;4.90;;
7821;SDS011;3956;50.558;9.678;2023-05-07T14:47:49;5.00;;;4.50;;
7821;SDS011;3956;50.558;9.678;2023-05-07T14:50:18;5.33;;;4.37;;
7821;SDS011;3956;50.558;9.678;2023-05-07T14:52:47;6.03;;;4.93;;
7821;SDS011;3956;50.558;9.678;2023-05-07T14:55:19;6.43;;;5.20;;
7821;SDS011;3956;50.558;9.678;2023-05-07T14:57:47;6.97;;;5.10;;
7821;SDS011;3956;50.558;9.678;2023-05-07T15:00:21;9.33;;;7.17;;
7821;SDS011;3956;50.558;9.678;2023-05-07T15:02:51;10.30;;;5.93;;
7821;SDS011;3956;50.558;9.678;2023-05-07T15:05:24;7.20;;;5.77;;
7821;SDS011;3956;50.558;9.678;2023-05-07T15:07:53;7.50;;;5.13;;
7821;SDS011;3956;50.558;9.678;2023-05-07T15:10:35;5.90;;;5.07;;
7821;SDS011;3956;50.558;9.678;2023-05-07T15:13:14;7.17;;;5.20;;
7821;SDS011;3956;50.558;9.678;2023-05-07T15:15:47;7.60;;;5.43;;
7821;SDS011;3956;50.558;9.678;2023-05-07T15:18:25;5.20;;;4.70;;
7821;SDS011;3956;50.558;9.678;2023-05-07T15:20:55;6.03;;;5.43;;
7821;SDS011;3956;50.558;9.678;2023-05-07T15:23:27;8.10;;;6.10;;
7821;SDS011;3956;50.558;9.678;2023-05-07T15:26:00;5.97;;;5.20;;
7821;SDS011;3956;50.558;9.678;2023-05-07T15:28:41;7.07;;;5.53;;
7821;SDS011;3956;50.558;9.678;2023-05-07T15:31:15;7.33;;;5.90;;
7821;SDS011;3956;50.558;9.678;2023-05-07T15:33:51;7.03;;;5.43;;
7821;SDS011;3956;50.558;9.678;2023-05-07T15:36:21;9.03;;;5.83;;
7821;SDS011;3956;50.558;9.678;2023-05-07T15:38:55;7.53;;;5.43;;
7821;SDS011;3956;50.558;9.678;2023-05-07T15:41:54;7.90;;;5.87;;
7821;SDS011;3956;50.558;9.678;2023-05-07T15:44:41;9.33;;;5.50;;
7821;SDS011;3956;50.558;9.678;2023-05-07T15:47:34;7.37;;;5.50;;
7821;SDS011;3956;50.558;9.678;2023-05-07T15:50:12;5.70;;;4.97;;
7821;SDS011;3956;50.558;9.678;2023-05-07T15:52:58;5.90;;;5.30;;
7821;SDS011;3956;50.558;9.678;2023-05-07T15:55:26;9.37;;;6.10;;
7821;SDS011;3956;50.558;9.678;2023-05-07T15:58:04;9.43;;;5.20;;
7821;SDS011;3956;50.558;9.678;2023-05-07T16:01:03;6.60;;;5.03;;
7821;SDS011;3956;50.558;9.678;2023-05-07T16:03:50;5.50;;;5.00;;
7821;SDS011;3956;50.558;9.678;2023-05-07T16:07:03;8.40;;;5.40;;